Time;durP1;ratioP1;P1;durP2;ratioP2;P2;SDS_P1;SDS_P2;PMS_P1;PMS_P2;Temp;Humidity;BMP_temperature;BMP_pressure;BME280_temperature;BME280_humidity;BME280_pressure;Samples;Min_cycle;Max_cycle;Signal;HPM_P1;HPM_P2
2022/08/25 00:02:25;;;;;;;;;;;24.80;66.60;;;;;;6281800;27;20074;-41
2022/08/25 00:05:28;;;;;;;;;;;24.60;66.50;;;;;;6309400;27;19925;-42
2022/08/25 00:08:36;;;;;;;;;;;24.70;66.60;;;;;;6295441;27;19997;-39
2022/08/25 00:11:38;;;;;;;;;;;24.90;66.70;;;;;;6293219;27;20743;-40
2022/08/25 00:14:41;;;;;;;;;;;24.50;66.50;;;;;;6288657;27;19928;-46
2022/08/25 00:17:43;;;;;;;;;;;24.60;66.70;;;;;;6308577;27;20849;-39
2022/08/25 00:20:44;;;;;;;;;;;24.70;66.70;;;;;;6303674;27;19965;-39
2022/08/25 00:23:50;;;;;;;;;;;24.80;66.80;;;;;;6296056;27;19931;-39
2022/08/25 00:26:53;;;;;;;;;;;24.60;66.70;;;;;;6308281;27;19930;-39
2022/08/25 00:29:55;;;;;;;;;;;24.60;66.70;;;;;;6316548;27;20172;-39
2022/08/25 00:33:03;;;;;;;;;;;24.80;66.90;;;;;;6305934;27;19927;-41
2022/08/25 00:36:05;;;;;;;;;;;24.90;67.00;;;;;;6307701;27;20000;-41
2022/08/25 00:39:08;;;;;;;;;;;24.60;66.80;;;;;;6308775;27;20037;-40
2022/08/25 00:42:09;;;;;;;;;;;24.60;66.90;;;;;;6310042;27;20592;-40
2022/08/25 00:45:17;;;;;;;;;;;24.60;66.90;;;;;;6312442;27;19918;-40
2022/08/25 00:48:18;;;;;;;;;;;24.50;66.90;;;;;;6311849;27;20000;-42
2022/08/25 00:51:24;;;;;;;;;;;24.70;67.10;;;;;;6316012;27;20980;-39
2022/08/25 00:54:28;;;;;;;;;;;24.60;66.90;;;;;;6285939;27;20843;-39
2022/08/25 00:57:31;;;;;;;;;;;24.70;67.00;;;;;;6307156;27;20096;-41
2022/08/25 01:00:38;;;;;;;;;;;24.80;67.10;;;;;;6321632;27;20947;-40
2022/08/25 01:03:39;;;;;;;;;;;24.50;66.90;;;;;;6315595;27;20382;-39
2022/08/25 01:06:43;;;;;;;;;;;24.90;67.10;;;;;;6301701;27;20060;-39
2022/08/25 01:09:45;;;;;;;;;;;24.50;66.90;;;;;;6299670;27;20180;-41
2022/08/25 01:12:47;;;;;;;;;;;24.80;67.10;;;;;;6300831;27;19977;-39
2022/08/25 01:15:52;;;;;;;;;;;24.40;66.90;;;;;;6301074;27;19927;-39
2022/08/25 01:18:55;;;;;;;;;;;24.60;67.00;;;;;;6280548;27;20343;-39
2022/08/25 01:21:58;;;;;;;;;;;24.70;67.00;;;;;;6301013;27;20541;-39
2022/08/25 01:25:02;;;;;;;;;;;24.70;67.00;;;;;;6298971;27;20075;-39
2022/08/25 01:28:04;;;;;;;;;;;24.40;66.80;;;;;;6284817;27;20097;-41
2022/08/25 01:31:06;;;;;;;;;;;24.80;67.10;;;;;;6282403;27;20243;-39
2022/08/25 01:34:26;;;;;;;;;;;24.70;67.00;;;;;;6304710;27;20262;-40
2022/08/25 01:37:28;;;;;;;;;;;24.60;66.90;;;;;;6305340;27;20333;-39
2022/08/25 01:40:30;;;;;;;;;;;24.80;67.00;;;;;;6303177;27;20229;-39
2022/08/25 01:43:35;;;;;;;;;;;24.70;67.00;;;;;;6279364;27;20442;-39
2022/08/25 01:46:37;;;;;;;;;;;24.60;66.90;;;;;;6299231;27;19941;-39
2022/08/25 01:49:38;;;;;;;;;;;24.60;66.90;;;;;;6300093;27;20617;-39
2022/08/25 01:52:48;;;;;;;;;;;24.80;66.90;;;;;;6299928;27;19923;-41
2022/08/25 01:55:51;;;;;;;;;;;24.80;67.00;;;;;;6287882;27;20574;-40
2022/08/25 01:58:52;;;;;;;;;;;24.60;66.90;;;;;;6276997;27;20469;-41
2022/08/25 02:01:57;;;;;;;;;;;24.80;67.00;;;;;;6295284;27;20026;-39
2022/08/25 02:05:01;;;;;;;;;;;24.50;66.80;;;;;;6302171;27;19927;-39
2022/08/25 02:08:04;;;;;;;;;;;24.90;67.30;;;;;;6277884;27;20018;-39
2022/08/25 02:11:10;;;;;;;;;;;24.70;66.90;;;;;;6295636;27;19988;-41
2022/08/25 02:14:12;;;;;;;;;;;24.80;66.90;;;;;;6300740;27;20174;-40
2022/08/25 02:17:14;;;;;;;;;;;24.60;66.80;;;;;;6272969;27;20782;-41
2022/08/25 02:20:15;;;;;;;;;;;24.30;66.70;;;;;;6298909;27;20036;-39
2022/08/25 02:23:18;;;;;;;;;;;25.10;67.10;;;;;;6295658;27;19927;-39
2022/08/25 02:26:19;;;;;;;;;;;24.70;66.80;;;;;;6302664;27;20217;-39
2022/08/25 02:29:20;;;;;;;;;;;24.70;66.80;;;;;;6302532;27;20593;-39
2022/08/25 02:32:22;;;;;;;;;;;24.70;66.80;;;;;;6300721;27;20434;-41
2022/08/25 02:35:24;;;;;;;;;;;24.90;66.90;;;;;;6290295;27;19986;-40
2022/08/25 02:38:27;;;;;;;;;;;24.80;66.80;;;;;;6297728;27;20042;-39
2022/08/25 02:41:30;;;;;;;;;;;24.70;66.80;;;;;;6279898;27;19924;-39
2022/08/25 02:44:32;;;;;;;;;;;25.00;66.90;;;;;;6307070;27;19946;-39
2022/08/25 02:47:35;;;;;;;;;;;24.80;66.90;;;;;;6300041;27;19931;-39
2022/08/25 02:50:36;;;;;;;;;;;24.70;66.80;;;;;;6294569;27;20345;-40
2022/08/25 02:53:39;;;;;;;;;;;24.70;66.80;;;;;;6294193;27;19950;-39
2022/08/25 02:56:41;;;;;;;;;;;25.00;66.90;;;;;;6299961;27;20348;-39
2022/08/25 02:59:47;;;;;;;;;;;24.60;66.70;;;;;;6279866;27;20195;-39
2022/08/25 03:02:48;;;;;;;;;;;24.70;66.70;;;;;;6299068;27;19966;-41
2022/08/25 03:05:50;;;;;;;;;;;24.90;66.90;;;;;;6278840;27;20251;-39
2022/08/25 03:08:52;;;;;;;;;;;24.90;66.80;;;;;;6288028;27;20626;-40
2022/08/25 03:11:53;;;;;;;;;;;24.80;66.80;;;;;;6303004;27;20045;-38
2022/08/25 03:14:55;;;;;;;;;;;25.00;66.90;;;;;;6304211;27;20458;-39
2022/08/25 03:17:56;;;;;;;;;;;24.90;66.90;;;;;;6298345;27;20194;-42
2022/08/25 03:21:02;;;;;;;;;;;24.90;66.80;;;;;;6279675;27;20490;-38
2022/08/25 03:24:04;;;;;;;;;;;24.70;66.70;;;;;;6293664;27;19927;-39
2022/08/25 03:27:05;;;;;;;;;;;25.00;67.00;;;;;;6276732;27;20397;-39
2022/08/25 03:30:07;;;;;;;;;;;24.70;66.80;;;;;;6296653;27;20348;-41
2022/08/25 03:33:09;;;;;;;;;;;25.10;67.00;;;;;;6296424;27;20416;-40
2022/08/25 03:36:11;;;;;;;;;;;25.10;67.00;;;;;;6296486;27;20532;-40
2022/08/25 03:39:13;;;;;;;;;;;24.80;66.70;;;;;;6293454;27;20404;-39
2022/08/25 03:42:14;;;;;;;;;;;24.70;66.70;;;;;;6273224;27;20031;-39
2022/08/25 03:45:16;;;;;;;;;;;25.10;67.00;;;;;;6293907;27;20193;-40
2022/08/25 03:48:17;;;;;;;;;;;24.70;66.60;;;;;;6278975;27;20554;-40
2022/08/25 03:51:19;;;;;;;;;;;24.90;66.80;;;;;;6298917;27;19924;-40
2022/08/25 03:54:23;;;;;;;;;;;24.90;66.80;;;;;;6291599;27;20046;-39
2022/08/25 03:57:24;;;;;;;;;;;25.00;66.90;;;;;;6283607;27;19928;-39
2022/08/25 04:00:26;;;;;;;;;;;25.10;66.90;;;;;;6302859;27;20146;-39
2022/08/25 04:03:30;;;;;;;;;;;24.90;66.80;;;;;;6310548;27;19923;-39
2022/08/25 04:06:32;;;;;;;;;;;24.80;66.70;;;;;;6291024;27;20042;-40
2022/08/25 04:09:34;;;;;;;;;;;24.90;66.80;;;;;;6299541;27;20009;-39
2022/08/25 04:12:38;;;;;;;;;;;25.00;66.90;;;;;;6296273;27;20087;-39
2022/08/25 04:15:41;;;;;;;;;;;24.90;66.90;;;;;;6285082;27;20366;-39
2022/08/25 04:18:42;;;;;;;;;;;24.80;66.90;;;;;;6292680;27;20627;-40
2022/08/25 04:21:44;;;;;;;;;;;25.00;67.00;;;;;;6294323;27;20000;-41
2022/08/25 04:24:46;;;;;;;;;;;24.90;66.90;;;;;;6301164;27;19923;-39
2022/08/25 04:27:47;;;;;;;;;;;25.00;67.60;;;;;;6290252;27;19946;-40
2022/08/25 04:30:48;;;;;;;;;;;24.80;66.80;;;;;;6290102;27;19931;-40
2022/08/25 04:33:56;;;;;;;;;;;24.90;66.90;;;;;;6288761;27;20007;-39
2022/08/25 04:37:02;;;;;;;;;;;24.80;66.90;;;;;;6270601;27;20059;-40
2022/08/25 04:40:05;;;;;;;;;;;25.30;67.20;;;;;;6296169;27;20746;-40
2022/08/25 04:43:06;;;;;;;;;;;24.70;67.40;;;;;;6288291;27;20082;-39
2022/08/25 04:46:11;;;;;;;;;;;24.80;66.90;;;;;;6285045;27;20504;-39
2022/08/25 04:49:12;;;;;;;;;;;24.60;66.80;;;;;;6266506;27;20229;-39
2022/08/25 04:52:13;;;;;;;;;;;24.80;66.90;;;;;;6286414;27;20238;-39
2022/08/25 04:55:16;;;;;;;;;;;25.10;67.10;;;;;;6285833;27;19997;-40
2022/08/25 04:58:18;;;;;;;;;;;24.80;66.90;;;;;;6289839;27;20430;-39
2022/08/25 05:01:20;;;;;;;;;;;24.90;67.00;;;;;;6289660;27;19926;-42
2022/08/25 05:04:22;;;;;;;;;;;24.80;66.90;;;;;;6301173;27;20243;-40
2022/08/25 05:07:33;;;;;;;;;;;24.60;66.80;;;;;;6299050;27;20470;-39
2022/08/25 05:10:38;;;;;;;;;;;25.10;67.10;;;;;;6269957;27;20177;-40
2022/08/25 05:13:40;;;;;;;;;;;24.90;67.00;;;;;;6284886;27;20153;-39
2022/08/25 05:16:42;;;;;;;;;;;24.90;67.10;;;;;;6276146;27;19923;-40
2022/08/25 05:19:43;;;;;;;;;;;24.90;67.10;;;;;;6294554;27;20050;-39
2022/08/25 05:22:45;;;;;;;;;;;24.70;67.00;;;;;;6301892;27;19927;-40
2022/08/25 05:25:47;;;;;;;;;;;24.90;67.10;;;;;;6298958;27;19927;-39
2022/08/25 05:28:49;;;;;;;;;;;24.90;67.20;;;;;;6308470;27;20050;-40
2022/08/25 05:31:51;;;;;;;;;;;24.70;67.00;;;;;;6268014;27;20542;-39
2022/08/25 05:34:53;;;;;;;;;;;25.00;67.20;;;;;;6300277;27;19974;-41
2022/08/25 05:37:57;;;;;;;;;;;24.80;67.10;;;;;;6295763;27;19933;-40
2022/08/25 05:41:00;;;;;;;;;;;24.90;67.20;;;;;;6298731;27;20056;-40
2022/08/25 05:44:02;;;;;;;;;;;24.70;67.00;;;;;;6269763;27;20041;-39
2022/08/25 05:47:04;;;;;;;;;;;24.80;67.20;;;;;;6282260;27;20153;-40
2022/08/25 05:50:06;;;;;;;;;;;25.00;67.30;;;;;;6284675;27;19987;-40
2022/08/25 05:53:07;;;;;;;;;;;24.90;67.20;;;;;;6269861;27;20487;-42
2022/08/25 05:56:09;;;;;;;;;;;24.90;67.30;;;;;;6274352;27;20285;-42
2022/08/25 05:59:10;;;;;;;;;;;24.90;67.20;;;;;;6269466;27;19923;-40
2022/08/25 06:05:23;;;;;;;;;;;24.90;67.30;;;;;;6285767;27;19934;-44
2022/08/25 06:08:29;;;;;;;;;;;24.70;67.10;;;;;;6287573;27;20186;-40
2022/08/25 06:11:31;;;;;;;;;;;24.90;67.20;;;;;;6268007;27;19927;-40
2022/08/25 06:14:32;;;;;;;;;;;24.90;67.20;;;;;;6278861;27;20897;-39
2022/08/25 06:17:34;;;;;;;;;;;25.10;67.30;;;;;;6267654;27;19969;-42
2022/08/25 06:20:35;;;;;;;;;;;24.80;67.20;;;;;;6287816;27;20934;-39
2022/08/25 06:23:37;;;;;;;;;;;25.10;67.40;;;;;;6283814;27;19927;-40
2022/08/25 06:26:39;;;;;;;;;;;24.90;67.30;;;;;;6285243;27;20016;-40
2022/08/25 06:29:40;;;;;;;;;;;24.80;67.30;;;;;;6285154;27;20027;-41
2022/08/25 06:32:43;;;;;;;;;;;24.80;67.20;;;;;;6270169;27;20012;-40
2022/08/25 06:35:45;;;;;;;;;;;24.80;67.20;;;;;;6272343;27;21199;-40
2022/08/25 06:38:47;;;;;;;;;;;24.60;67.00;;;;;;6264628;27;19927;-40
2022/08/25 06:41:50;;;;;;;;;;;24.90;67.20;;;;;;6265702;27;19973;-41
2022/08/25 06:44:52;;;;;;;;;;;24.90;67.20;;;;;;6257050;27;21846;-41
2022/08/25 06:47:56;;;;;;;;;;;24.90;67.20;;;;;;6248680;27;20780;-42
2022/08/25 06:50:57;;;;;;;;;;;24.90;67.10;;;;;;6236173;27;19923;-40
2022/08/25 06:53:59;;;;;;;;;;;24.80;67.00;;;;;;6239795;27;20050;-42
2022/08/25 06:57:01;;;;;;;;;;;24.90;67.70;;;;;;6220025;27;19935;-40
2022/08/25 07:00:04;;;;;;;;;;;24.80;67.00;;;;;;6172957;27;19935;-39
2022/08/25 07:03:05;;;;;;;;;;;24.90;67.00;;;;;;6190246;27;20393;-41
2022/08/25 07:06:08;;;;;;;;;;;24.80;67.00;;;;;;6195612;27;20013;-39
2022/08/25 07:09:11;;;;;;;;;;;25.00;67.00;;;;;;6163996;27;21325;-39
2022/08/25 07:12:13;;;;;;;;;;;25.00;66.90;;;;;;6172073;27;19933;-39
2022/08/25 07:15:14;;;;;;;;;;;25.10;66.90;;;;;;6152772;27;19981;-40
2022/08/25 07:18:22;;;;;;;;;;;25.10;66.80;;;;;;6166221;27;19962;-39
2022/08/25 07:21:24;;;;;;;;;;;25.10;66.60;;;;;;6183212;27;19963;-39
2022/08/25 07:24:32;;;;;;;;;;;25.10;66.60;;;;;;6168407;27;19927;-39
2022/08/25 07:27:34;;;;;;;;;;;25.10;66.60;;;;;;6182489;27;19933;-39
2022/08/25 07:30:36;;;;;;;;;;;25.20;66.60;;;;;;6173078;27;19927;-40
2022/08/25 07:35:13;;;;;;;;;;;25.20;66.60;;;;;;6163829;27;20904;-39
2022/08/25 07:37:03;;;;;;;;;;;25.30;66.60;;;;;;6131355;27;19935;-40
2022/08/25 07:40:06;;;;;;;;;;;25.20;66.60;;;;;;6184865;27;20293;-39
2022/08/25 07:43:09;;;;;;;;;;;25.40;66.60;;;;;;6150383;27;20057;-38
2022/08/25 07:46:10;;;;;;;;;;;25.20;66.40;;;;;;6159053;27;19932;-36
2022/08/25 07:49:13;;;;;;;;;;;25.30;66.50;;;;;;6158050;28;19935;-36
2022/08/25 07:52:18;;;;;;;;;;;25.50;66.50;;;;;;6176296;27;19928;-38
2022/08/25 07:55:20;;;;;;;;;;;25.40;66.30;;;;;;6152626;27;19927;-37
2022/08/25 07:58:22;;;;;;;;;;;25.40;66.20;;;;;;6118764;27;22682;-39
2022/08/25 08:01:24;;;;;;;;;;;25.50;66.30;;;;;;6158225;27;19933;-38
2022/08/25 08:04:25;;;;;;;;;;;25.50;66.20;;;;;;6144254;27;34330;-40
2022/08/25 08:07:27;;;;;;;;;;;25.40;66.10;;;;;;6143887;27;33285;-38
2022/08/25 08:10:44;;;;;;;;;;;25.50;66.10;;;;;;6165601;27;20038;-38
2022/08/25 08:14:07;;;;;;;;;;;25.50;66.10;;;;;;6160234;27;22880;-39
2022/08/25 08:17:09;;;;;;;;;;;25.50;66.10;;;;;;6168239;27;19927;-41
2022/08/25 08:20:10;;;;;;;;;;;25.50;66.10;;;;;;6142719;27;19927;-41
2022/08/25 08:23:12;;;;;;;;;;;25.60;66.10;;;;;;6151016;27;20853;-40
2022/08/25 08:26:13;;;;;;;;;;;25.60;66.10;;;;;;6165218;27;33144;-40
2022/08/25 08:29:15;;;;;;;;;;;25.60;66.10;;;;;;6164610;27;50492;-39
2022/08/25 08:32:17;;;;;;;;;;;25.60;66.00;;;;;;6160054;27;34662;-38
2022/08/25 08:35:19;;;;;;;;;;;25.80;66.10;;;;;;6170098;27;19927;-40
2022/08/25 08:38:21;;;;;;;;;;;25.90;66.30;;;;;;6147389;27;20071;-39
2022/08/25 08:45:23;;;;;;;;;;;25.70;65.80;;;;;;6094087;27;21503;-40
2022/08/25 08:48:36;;;;;;;;;;;26.00;66.00;;;;;;6107700;27;19931;-40
2022/08/25 08:51:42;;;;;;;;;;;25.80;65.90;;;;;;6135599;27;19934;-42
2022/08/25 08:54:59;;;;;;;;;;;25.80;65.90;;;;;;6148416;27;19935;-39
2022/08/25 08:58:03;;;;;;;;;;;25.90;66.20;;;;;;6084285;27;20392;-40
2022/08/25 09:01:07;;;;;;;;;;;25.70;65.80;;;;;;6117495;27;21800;-39
2022/08/25 09:04:10;;;;;;;;;;;25.80;65.90;;;;;;6125017;27;21859;-41
2022/08/25 09:07:13;;;;;;;;;;;25.80;65.90;;;;;;6135364;27;19932;-39
2022/08/25 09:10:18;;;;;;;;;;;25.80;66.00;;;;;;6142569;27;19928;-41
2022/08/25 09:13:24;;;;;;;;;;;25.90;66.00;;;;;;6148232;27;19927;-39
2022/08/25 09:19:56;;;;;;;;;;;25.90;65.90;;;;;;6154966;27;19927;-38
2022/08/25 09:23:01;;;;;;;;;;;26.00;66.10;;;;;;6138781;27;21808;-39
2022/08/25 09:26:10;;;;;;;;;;;25.90;66.00;;;;;;6159315;27;19939;-39
2022/08/25 09:29:13;;;;;;;;;;;25.80;65.90;;;;;;6158796;27;20020;-42
2022/08/25 09:32:19;;;;;;;;;;;26.00;66.10;;;;;;6134112;27;19928;-41
2022/08/25 09:35:33;;;;;;;;;;;26.20;66.20;;;;;;6130938;27;19935;-37
2022/08/25 09:38:35;;;;;;;;;;;25.80;66.00;;;;;;6104328;27;19934;-37
2022/08/25 09:41:43;;;;;;;;;;;25.60;65.90;;;;;;6049657;27;20013;-37
2022/08/25 09:44:46;;;;;;;;;;;25.80;66.10;;;;;;6141365;27;19931;-38
2022/08/25 09:47:48;;;;;;;;;;;25.80;66.10;;;;;;6143517;27;19935;-38
2022/08/25 09:50:51;;;;;;;;;;;25.80;66.10;;;;;;6151074;27;20106;-38
2022/08/25 09:53:53;;;;;;;;;;;26.00;66.30;;;;;;6106189;27;24685;-39
2022/08/25 09:56:56;;;;;;;;;;;25.70;66.10;;;;;;6110305;27;34145;-48
2022/08/25 10:00:07;;;;;;;;;;;25.70;66.30;;;;;;6085573;27;19934;-48
2022/08/25 10:03:11;;;;;;;;;;;25.80;66.20;;;;;;6117930;27;35722;-49
2022/08/25 10:06:14;;;;;;;;;;;25.80;66.20;;;;;;6114580;27;29579;-49
2022/08/25 10:09:24;;;;;;;;;;;25.80;66.20;;;;;;6088598;27;28002;-49
2022/08/25 10:12:29;;;;;;;;;;;25.80;66.20;;;;;;6149954;27;33090;-48
2022/08/25 10:15:31;;;;;;;;;;;25.90;66.20;;;;;;6150299;27;30572;-48
2022/08/25 10:18:33;;;;;;;;;;;26.00;66.30;;;;;;6140751;27;32886;-48
2022/08/25 10:21:36;;;;;;;;;;;25.90;66.30;;;;;;6149506;27;20012;-48
2022/08/25 10:24:39;;;;;;;;;;;25.80;66.10;;;;;;6183656;27;22332;-47
2022/08/25 10:27:48;;;;;;;;;;;25.60;65.90;;;;;;6165773;27;19935;-48
2022/08/25 10:30:56;;;;;;;;;;;25.80;66.10;;;;;;6174923;27;19934;-48
2022/08/25 10:34:03;;;;;;;;;;;25.60;66.00;;;;;;6189458;27;19973;-48
2022/08/25 10:37:11;;;;;;;;;;;25.70;66.80;;;;;;6192576;27;19941;-48
2022/08/25 10:40:19;;;;;;;;;;;25.50;66.10;;;;;;6209368;27;21348;-48
2022/08/25 10:43:25;;;;;;;;;;;25.70;66.30;;;;;;6240482;27;19931;-48
2022/08/25 10:46:30;;;;;;;;;;;25.70;66.40;;;;;;6221979;27;19927;-47
2022/08/25 10:49:37;;;;;;;;;;;25.70;66.60;;;;;;6220780;27;20955;-47
2022/08/25 10:52:45;;;;;;;;;;;25.60;66.50;;;;;;6232359;27;19927;-47
2022/08/25 10:55:54;;;;;;;;;;;25.50;66.50;;;;;;6237665;27;20141;-47
2022/08/25 10:59:10;;;;;;;;;;;25.60;66.60;;;;;;6234194;27;26243;-47
2022/08/25 11:02:23;;;;;;;;;;;25.70;66.70;;;;;;6217806;27;19973;-48
2022/08/25 11:05:27;;;;;;;;;;;25.70;66.70;;;;;;6241635;27;20896;-47
2022/08/25 11:08:33;;;;;;;;;;;25.60;66.60;;;;;;6249206;27;19928;-48
2022/08/25 11:11:36;;;;;;;;;;;25.60;66.60;;;;;;6228001;27;19970;-47
2022/08/25 11:14:39;;;;;;;;;;;25.70;66.70;;;;;;6255584;27;20912;-45
2022/08/25 11:17:45;;;;;;;;;;;25.50;66.50;;;;;;6237050;27;19927;-48
2022/08/25 11:21:00;;;;;;;;;;;25.40;66.50;;;;;;6232454;27;20043;-48
2022/08/25 11:24:08;;;;;;;;;;;25.70;66.90;;;;;;6243023;27;19991;-48
2022/08/25 11:27:12;;;;;;;;;;;25.20;66.40;;;;;;6251607;27;19927;-48
2022/08/25 11:30:16;;;;;;;;;;;25.60;66.70;;;;;;6223329;27;29703;-48
2022/08/25 11:33:23;;;;;;;;;;;25.80;66.90;;;;;;6234138;27;22545;-48
2022/08/25 11:36:27;;;;;;;;;;;25.50;66.70;;;;;;6241885;27;21635;-48
2022/08/25 11:39:40;;;;;;;;;;;25.60;66.80;;;;;;6223534;27;19927;-48
2022/08/25 11:42:50;;;;;;;;;;;25.30;66.60;;;;;;6231818;27;19931;-48
2022/08/25 11:45:58;;;;;;;;;;;25.50;66.70;;;;;;6228708;27;31973;-48
2022/08/25 11:49:06;;;;;;;;;;;25.50;67.40;;;;;;6202999;27;19989;-48
2022/08/25 11:52:29;;;;;;;;;;;25.40;66.70;;;;;;6208168;27;19927;-48
2022/08/25 11:55:45;;;;;;;;;;;25.40;66.70;;;;;;6181047;27;19923;-48
2022/08/25 11:58:48;;;;;;;;;;;25.50;66.80;;;;;;6171509;27;24883;-48
2022/08/25 12:02:00;;;;;;;;;;;25.40;66.70;;;;;;6169160;27;19934;-48
2022/08/25 12:05:05;;;;;;;;;;;25.50;66.80;;;;;;6136555;27;19935;-48
2022/08/25 12:11:38;;;;;;;;;;;25.50;66.70;;;;;;6149035;27;24882;-49
2022/08/25 12:14:42;;;;;;;;;;;25.20;67.00;;;;;;6158974;27;19931;-49
2022/08/25 12:17:43;;;;;;;;;;;25.40;66.50;;;;;;6101389;27;19934;-48
2022/08/25 12:21:01;;;;;;;;;;;25.50;66.70;;;;;;6157434;27;20391;-49
2022/08/25 12:24:10;;;;;;;;;;;25.30;66.40;;;;;;6118264;27;19927;-49
2022/08/25 12:27:19;;;;;;;;;;;25.70;66.80;;;;;;6122129;27;19928;-49
2022/08/25 12:30:23;;;;;;;;;;;25.50;66.50;;;;;;6108334;27;19928;-49
2022/08/25 12:33:32;;;;;;;;;;;24.80;66.00;;;;;;6094923;27;25118;-49
2022/08/25 12:36:33;;;;;;;;;;;25.40;66.30;;;;;;6118650;27;20074;-48
2022/08/25 12:39:41;;;;;;;;;;;25.40;66.30;;;;;;6123975;27;34274;-48
2022/08/25 12:42:43;;;;;;;;;;;25.40;66.30;;;;;;6134800;27;19946;-49
2022/08/25 12:45:45;;;;;;;;;;;25.40;66.40;;;;;;6127816;27;19983;-47
2022/08/25 12:48:55;;;;;;;;;;;25.60;66.50;;;;;;6132237;27;19934;-48
2022/08/25 12:51:59;;;;;;;;;;;25.20;66.20;;;;;;6125695;27;34277;-48
2022/08/25 12:55:04;;;;;;;;;;;25.50;66.40;;;;;;6118112;27;20058;-49
2022/08/25 12:58:07;;;;;;;;;;;25.40;66.30;;;;;;6132467;27;19935;-48
2022/08/25 13:01:17;;;;;;;;;;;25.30;66.30;;;;;;6127717;27;31734;-48
2022/08/25 13:04:44;;;;;;;;;;;25.40;66.30;;;;;;6113863;27;19928;-48
2022/08/25 13:07:55;;;;;;;;;;;25.30;66.20;;;;;;6134603;27;19927;-48
2022/08/25 13:11:03;;;;;;;;;;;25.40;66.30;;;;;;6133453;27;21208;-48
2022/08/25 13:14:10;;;;;;;;;;;25.50;66.30;;;;;;6132025;27;21746;-48
2022/08/25 13:17:23;;;;;;;;;;;25.40;66.20;;;;;;6114250;27;35341;-48
2022/08/25 13:20:26;;;;;;;;;;;25.50;66.10;;;;;;6121279;27;23107;-48
2022/08/25 13:23:29;;;;;;;;;;;25.70;66.20;;;;;;6146012;27;24668;-48
2022/08/25 13:26:32;;;;;;;;;;;25.30;65.80;;;;;;6126846;27;36700;-48
2022/08/25 13:29:36;;;;;;;;;;;25.10;65.60;;;;;;6133229;27;48644;-48
2022/08/25 13:32:41;;;;;;;;;;;25.50;65.80;;;;;;6114722;27;34642;-48
2022/08/25 13:35:46;;;;;;;;;;;25.50;65.80;;;;;;6143558;27;31811;-49
2022/08/25 13:38:48;;;;;;;;;;;25.10;65.40;;;;;;6122388;27;31404;-48
2022/08/25 13:41:52;;;;;;;;;;;25.50;65.70;;;;;;6148871;27;36130;-49
2022/08/25 13:44:57;;;;;;;;;;;25.50;65.70;;;;;;6163648;27;19933;-48
2022/08/25 13:47:59;;;;;;;;;;;25.50;65.70;;;;;;6161803;27;29754;-48
2022/08/25 13:51:16;;;;;;;;;;;25.70;65.70;;;;;;6156871;27;20152;-48
2022/08/25 13:54:23;;;;;;;;;;;25.60;65.70;;;;;;6130611;27;20013;-48
2022/08/25 13:57:27;;;;;;;;;;;25.60;65.60;;;;;;6163962;27;24579;-47
2022/08/25 14:00:33;;;;;;;;;;;25.50;65.50;;;;;;6112934;27;31129;-48
2022/08/25 14:03:35;;;;;;;;;;;25.60;65.50;;;;;;6106479;27;19934;-48
2022/08/25 14:06:37;;;;;;;;;;;25.60;65.50;;;;;;6101288;27;19934;-48
2022/08/25 14:09:40;;;;;;;;;;;25.40;65.40;;;;;;6085249;27;48867;-48
2022/08/25 14:12:44;;;;;;;;;;;25.60;65.40;;;;;;6092408;27;42463;-48
2022/08/25 14:15:46;;;;;;;;;;;25.60;65.40;;;;;;6114172;27;21368;-48
2022/08/25 14:18:56;;;;;;;;;;;25.60;65.40;;;;;;6090767;27;27141;-37
2022/08/25 14:22:01;;;;;;;;;;;25.60;65.40;;;;;;6090364;27;19940;-37
2022/08/25 14:25:05;;;;;;;;;;;25.60;65.40;;;;;;6071499;27;19932;-39
2022/08/25 14:28:09;;;;;;;;;;;25.50;65.20;;;;;;6071459;27;22837;-43
2022/08/25 14:31:17;;;;;;;;;;;25.60;65.20;;;;;;6109380;28;19939;-40
2022/08/25 14:34:22;;;;;;;;;;;25.60;65.30;;;;;;6095837;28;19971;-41
2022/08/25 14:37:25;;;;;;;;;;;25.50;65.20;;;;;;6094230;28;19931;-39
2022/08/25 14:40:26;;;;;;;;;;;25.60;65.90;;;;;;6065574;27;20058;-38
2022/08/25 14:43:35;;;;;;;;;;;25.60;65.20;;;;;;6108288;28;26937;-39
2022/08/25 14:46:43;;;;;;;;;;;25.70;65.30;;;;;;6113224;28;19982;-38
2022/08/25 14:49:46;;;;;;;;;;;25.80;65.30;;;;;;6073502;28;19932;-39
2022/08/25 14:52:49;;;;;;;;;;;25.70;65.20;;;;;;6098848;28;23440;-39
2022/08/25 14:55:54;;;;;;;;;;;25.60;65.20;;;;;;6101849;28;36333;-39
2022/08/25 14:59:00;;;;;;;;;;;25.70;65.20;;;;;;6102242;28;19932;-38
2022/08/25 15:02:02;;;;;;;;;;;25.60;65.20;;;;;;6082927;28;20007;-38
2022/08/25 15:05:07;;;;;;;;;;;25.50;65.10;;;;;;6062428;28;19932;-38
2022/08/25 15:11:23;;;;;;;;;;;25.70;65.20;;;;;;6117701;28;19974;-39
2022/08/25 15:14:27;;;;;;;;;;;25.60;65.10;;;;;;6117402;28;20053;-39
2022/08/25 15:17:29;;;;;;;;;;;25.60;65.10;;;;;;6114861;28;21140;-38
2022/08/25 15:20:32;;;;;;;;;;;25.30;64.90;;;;;;6104228;28;47796;-38
2022/08/25 15:23:34;;;;;;;;;;;25.60;65.10;;;;;;6098876;28;27264;-40
2022/08/25 15:26:39;;;;;;;;;;;25.60;65.10;;;;;;6109414;28;27235;-40
2022/08/25 15:29:41;;;;;;;;;;;25.60;65.00;;;;;;6084916;28;21995;-40
2022/08/25 15:32:43;;;;;;;;;;;25.60;65.00;;;;;;6083413;28;21881;-40
2022/08/25 15:35:45;;;;;;;;;;;25.60;65.00;;;;;;6103820;28;19939;-38
2022/08/25 15:38:47;;;;;;;;;;;25.60;65.10;;;;;;6100297;28;20052;-42
2022/08/25 15:41:51;;;;;;;;;;;25.50;65.00;;;;;;6113283;28;19932;-39
2022/08/25 15:44:52;;;;;;;;;;;25.60;65.00;;;;;;6116454;28;20049;-41
2022/08/25 15:47:55;;;;;;;;;;;25.50;64.90;;;;;;6122791;28;20118;-39
2022/08/25 15:50:59;;;;;;;;;;;25.70;65.00;;;;;;6120891;28;20063;-38
2022/08/25 15:54:01;;;;;;;;;;;25.70;65.00;;;;;;6099005;28;19939;-41
2022/08/25 15:57:03;;;;;;;;;;;25.60;64.90;;;;;;6103298;28;31281;-39
2022/08/25 16:00:10;;;;;;;;;;;25.60;64.80;;;;;;6099007;28;21925;-40
2022/08/25 16:03:13;;;;;;;;;;;25.80;65.00;;;;;;6105818;28;21569;-42
2022/08/25 16:06:16;;;;;;;;;;;25.60;64.90;;;;;;6092516;28;20005;-40
2022/08/25 16:09:19;;;;;;;;;;;25.60;64.90;;;;;;6114631;28;19933;-41
2022/08/25 16:12:24;;;;;;;;;;;25.50;64.90;;;;;;6141021;28;19939;-41
2022/08/25 16:15:29;;;;;;;;;;;25.60;65.00;;;;;;6144971;28;19932;-38
2022/08/25 16:18:30;;;;;;;;;;;25.60;65.00;;;;;;6169495;28;19997;-40
2022/08/25 16:21:35;;;;;;;;;;;25.60;64.80;;;;;;6178825;28;20384;-40
2022/08/25 16:24:43;;;;;;;;;;;25.50;64.80;;;;;;6158928;28;20020;-39
2022/08/25 16:27:45;;;;;;;;;;;25.50;64.90;;;;;;6163694;28;19939;-38
2022/08/25 16:30:47;;;;;;;;;;;25.60;65.00;;;;;;6142660;28;19936;-38
2022/08/25 16:33:54;;;;;;;;;;;25.60;64.90;;;;;;6168008;28;19932;-38
2022/08/25 16:37:00;;;;;;;;;;;25.50;64.90;;;;;;6183348;28;20949;-38
2022/08/25 16:40:02;;;;;;;;;;;25.60;65.00;;;;;;6188272;28;19939;-39
2022/08/25 16:43:04;;;;;;;;;;;25.50;65.00;;;;;;6211705;28;19947;-40
2022/08/25 16:46:07;;;;;;;;;;;25.50;65.00;;;;;;6209432;28;19946;-38
2022/08/25 16:49:09;;;;;;;;;;;25.80;65.20;;;;;;6198855;28;19939;-38
2022/08/25 16:55:23;;;;;;;;;;;25.50;65.00;;;;;;6199161;28;19938;-39
2022/08/25 16:58:27;;;;;;;;;;;25.50;65.00;;;;;;6223428;28;20016;-41
2022/08/25 17:01:32;;;;;;;;;;;25.40;64.90;;;;;;6221082;28;20035;-40
2022/08/25 17:04:34;;;;;;;;;;;25.20;64.70;;;;;;6226634;28;19932;-38
2022/08/25 17:07:36;;;;;;;;;;;25.40;64.90;;;;;;6215052;28;19967;-38
2022/08/25 17:10:38;;;;;;;;;;;25.50;65.00;;;;;;6217831;28;19932;-38
2022/08/25 17:13:41;;;;;;;;;;;25.30;64.80;;;;;;6205155;28;20890;-38
2022/08/25 17:16:47;;;;;;;;;;;25.40;64.90;;;;;;6195030;28;21230;-40
2022/08/25 17:19:48;;;;;;;;;;;25.30;64.80;;;;;;6225766;28;19933;-39
2022/08/25 17:22:56;;;;;;;;;;;25.20;64.80;;;;;;6230816;28;21186;-38
2022/08/25 17:25:58;;;;;;;;;;;25.30;64.90;;;;;;6235284;28;19924;-41
2022/08/25 17:29:00;;;;;;;;;;;25.40;65.00;;;;;;6227572;28;20037;-39
2022/08/25 17:32:02;;;;;;;;;;;25.30;64.90;;;;;;6228873;28;19931;-38
2022/08/25 17:35:04;;;;;;;;;;;25.10;64.90;;;;;;6224894;28;20058;-38
2022/08/25 17:38:07;;;;;;;;;;;25.30;64.90;;;;;;6231405;28;21126;-38
2022/08/25 17:41:13;;;;;;;;;;;25.30;65.00;;;;;;6228156;28;19938;-38
2022/08/25 17:44:15;;;;;;;;;;;25.20;65.00;;;;;;6227575;28;19932;-38
2022/08/25 17:47:16;;;;;;;;;;;25.20;64.90;;;;;;6202015;28;19928;-41
2022/08/25 17:50:17;;;;;;;;;;;25.20;65.00;;;;;;6231273;28;19928;-38
2022/08/25 17:53:20;;;;;;;;;;;25.00;64.80;;;;;;6232183;28;19978;-37
2022/08/25 17:56:25;;;;;;;;;;;25.20;65.00;;;;;;6232748;28;19924;-40
2022/08/25 17:59:28;;;;;;;;;;;25.20;65.10;;;;;;6218920;28;20000;-38
2022/08/25 18:02:33;;;;;;;;;;;25.00;64.90;;;;;;6225929;28;21420;-38
2022/08/25 18:05:36;;;;;;;;;;;24.80;64.80;;;;;;6223225;28;20325;-40
2022/08/25 18:08:38;;;;;;;;;;;25.10;64.90;;;;;;6205912;28;21255;-38
2022/08/25 18:11:41;;;;;;;;;;;25.00;64.90;;;;;;6222620;28;20145;-38